createdAt,value
2022-11-08T00:01:41.357Z,8.10
2022-11-08T00:04:08.062Z,7.70
2022-11-08T00:06:34.890Z,7.80
2022-11-08T00:09:01.553Z,7.50
2022-11-08T00:11:28.346Z,7.80
2022-11-08T00:13:55.197Z,7.80
2022-11-08T00:16:21.864Z,7.80
2022-11-08T00:18:48.548Z,7.70
2022-11-08T00:21:15.200Z,7.70
2022-11-08T00:23:41.959Z,7.80
2022-11-08T00:26:08.733Z,7.90
2022-11-08T00:28:35.379Z,7.90
2022-11-08T00:31:02.239Z,7.80
2022-11-08T00:33:28.889Z,7.90
2022-11-08T00:35:55.753Z,7.80
2022-11-08T00:38:22.574Z,7.80
2022-11-08T00:40:49.335Z,7.80
2022-11-08T00:43:16.082Z,7.70
2022-11-08T00:45:42.976Z,7.80
2022-11-08T00:48:09.668Z,7.60
2022-11-08T00:50:36.339Z,7.60
2022-11-08T00:53:03.048Z,7.60
2022-11-08T00:55:30.141Z,7.70
2022-11-08T00:58:00.713Z,7.70
2022-11-08T01:00:27.595Z,7.70
2022-11-08T01:02:54.319Z,7.60
2022-11-08T01:05:21.288Z,7.30
2022-11-08T01:07:48.025Z,7.10
2022-11-08T01:10:14.729Z,7.40
2022-11-08T01:12:41.404Z,6.80
2022-11-08T01:15:08.452Z,7.10
2022-11-08T01:17:35.492Z,7.30
2022-11-08T01:20:02.209Z,7.40
2022-11-08T01:22:29.014Z,7.40
2022-11-08T01:24:56.027Z,6.90
2022-11-08T01:27:22.645Z,7.00
2022-11-08T01:29:49.503Z,7.00
2022-11-08T01:32:16.213Z,7.10
2022-11-08T01:34:43.327Z,7.30
2022-11-08T01:37:10.034Z,7.40
2022-11-08T01:39:36.712Z,7.40
2022-11-08T01:42:03.475Z,7.50
2022-11-08T01:44:30.250Z,7.60
2022-11-08T01:46:56.859Z,7.50
2022-11-08T01:49:23.549Z,7.20
2022-11-08T01:51:50.695Z,7.10
2022-11-08T01:54:17.497Z,6.90
2022-11-08T01:56:44.138Z,7.20
2022-11-08T01:59:10.974Z,7.30
2022-11-08T02:01:37.792Z,7.40
2022-11-08T02:04:04.743Z,7.00
2022-11-08T02:06:31.529Z,7.20
2022-11-08T02:08:58.209Z,7.10
2022-11-08T02:11:24.926Z,7.20
2022-11-08T02:13:51.628Z,7.10
2022-11-08T02:16:18.327Z,7.20
2022-11-08T02:18:45.185Z,7.20
2022-11-08T02:21:11.914Z,7.30
2022-11-08T02:23:38.811Z,7.40
2022-11-08T02:26:05.606Z,7.40
2022-11-08T02:28:32.318Z,7.30
2022-11-08T02:30:59.202Z,7.10
2022-11-08T02:33:25.981Z,6.80
2022-11-08T02:35:52.684Z,6.90
2022-11-08T02:38:20.447Z,6.70
2022-11-08T02:40:48.204Z,6.70
2022-11-08T02:43:15.731Z,6.90
2022-11-08T02:45:42.528Z,6.50
2022-11-08T02:48:09.244Z,6.80
2022-11-08T02:50:35.906Z,6.90
2022-11-08T02:53:02.755Z,7.00
2022-11-08T02:55:29.425Z,6.90
2022-11-08T02:57:56.196Z,7.00
2022-11-08T03:00:22.971Z,6.90
2022-11-08T03:02:49.881Z,6.70
2022-11-08T03:05:16.627Z,6.60
2022-11-08T03:07:43.299Z,6.70
2022-11-08T03:10:10.398Z,6.80
2022-11-08T03:12:37.162Z,6.90
2022-11-08T03:15:03.878Z,6.80
2022-11-08T03:17:30.613Z,6.70
2022-11-08T03:19:57.394Z,6.50
2022-11-08T03:22:24.706Z,6.70
2022-11-08T03:24:51.320Z,6.50
2022-11-08T03:27:18.008Z,6.50
2022-11-08T03:29:44.847Z,6.70
2022-11-08T03:32:11.733Z,6.70
2022-11-08T03:34:38.614Z,6.80
2022-11-08T03:37:05.275Z,6.90
2022-11-08T03:39:32.010Z,6.90
2022-11-08T03:41:58.674Z,6.80
2022-11-08T03:44:25.333Z,6.60
2022-11-08T03:46:52.167Z,6.50
2022-11-08T03:49:18.909Z,6.60
2022-11-08T03:51:45.651Z,6.60
2022-11-08T03:54:12.618Z,6.50
2022-11-08T03:56:39.376Z,6.60
2022-11-08T03:59:06.081Z,6.10
2022-11-08T04:01:32.911Z,5.50
2022-11-08T04:03:59.685Z,5.80
2022-11-08T04:06:26.348Z,6.00
2022-11-08T04:08:53.089Z,6.10
2022-11-08T04:11:20.244Z,6.30
2022-11-08T04:13:47.129Z,5.80
2022-11-08T04:16:17.742Z,6.10
2022-11-08T04:18:44.754Z,5.90
2022-11-08T04:21:11.404Z,6.30
2022-11-08T04:23:38.136Z,6.00
2022-11-08T04:26:04.806Z,6.20
2022-11-08T04:28:31.617Z,6.10
2022-11-08T04:30:58.574Z,6.30
2022-11-08T04:33:25.441Z,6.20
2022-11-08T04:35:52.244Z,6.20
2022-11-08T04:38:19.432Z,6.20
2022-11-08T04:40:46.625Z,5.90
2022-11-08T04:43:13.334Z,6.10
2022-11-08T04:45:40.039Z,6.00
2022-11-08T04:48:06.679Z,6.10
2022-11-08T04:50:33.562Z,6.20
2022-11-08T04:53:00.197Z,6.20
2022-11-08T04:55:26.990Z,6.20
2022-11-08T04:57:53.691Z,6.30
2022-11-08T05:00:20.525Z,6.10
2022-11-08T05:02:47.502Z,6.20
2022-11-08T05:05:14.484Z,6.00
2022-11-08T05:07:41.195Z,5.90
2022-11-08T05:10:08.106Z,5.90
2022-11-08T05:12:34.851Z,6.10
2022-11-08T05:15:01.576Z,6.10
2022-11-08T05:17:28.602Z,6.20
2022-11-08T05:19:55.423Z,6.10
2022-11-08T05:22:22.180Z,5.70
2022-11-08T05:24:48.908Z,5.90
2022-11-08T05:27:15.648Z,5.80
2022-11-08T05:29:42.512Z,5.50
2022-11-08T05:32:09.306Z,5.70
2022-11-08T05:34:36.084Z,5.90
2022-11-08T05:37:02.729Z,5.80
2022-11-08T05:39:32.231Z,6.00
2022-11-08T05:41:59.673Z,5.80
2022-11-08T05:44:26.818Z,5.70
2022-11-08T05:46:53.709Z,6.00
2022-11-08T05:49:20.840Z,5.80
2022-11-08T05:51:47.673Z,6.00
2022-11-08T05:54:14.938Z,5.70
2022-11-08T05:56:42.254Z,5.90
2022-11-08T05:59:09.393Z,5.40
2022-11-08T06:01:36.244Z,5.40
2022-11-08T06:04:03.410Z,5.70
2022-11-08T06:06:30.604Z,5.80
2022-11-08T06:08:57.636Z,5.50
2022-11-08T06:11:24.799Z,5.70
2022-11-08T06:13:52.264Z,5.40
2022-11-08T06:16:19.612Z,5.70
2022-11-08T06:18:46.715Z,5.90
2022-11-08T06:21:14.143Z,6.20
2022-11-08T06:23:41.345Z,6.10
2022-11-08T06:26:08.370Z,6.20
2022-11-08T06:28:35.353Z,6.30
2022-11-08T06:31:02.611Z,5.90
2022-11-08T06:33:30.001Z,6.10
2022-11-08T06:35:57.517Z,6.10
2022-11-08T06:38:24.391Z,6.20
2022-11-08T06:40:51.442Z,6.10
2022-11-08T06:43:20.163Z,6.00
2022-11-08T06:45:47.437Z,6.10
2022-11-08T06:48:14.366Z,6.00
2022-11-08T06:50:44.079Z,6.30
2022-11-08T06:53:13.512Z,6.30
2022-11-08T06:55:41.094Z,6.40
2022-11-08T06:58:08.483Z,6.70
2022-11-08T07:00:36.109Z,6.80
2022-11-08T07:03:06.321Z,6.90
2022-11-08T07:05:33.617Z,7.10
2022-11-08T07:08:00.617Z,7.10
2022-11-08T07:10:27.789Z,7.30
2022-11-08T07:12:54.729Z,7.20
2022-11-08T07:15:22.091Z,7.10
2022-11-08T07:17:49.179Z,7.10
2022-11-08T07:20:16.290Z,7.20
2022-11-08T07:22:43.374Z,7.20
2022-11-08T07:25:10.996Z,7.00
2022-11-08T07:27:38.353Z,7.30
2022-11-08T07:30:05.749Z,7.60
2022-11-08T07:32:33.059Z,8.00
2022-11-08T07:34:59.972Z,8.30
2022-11-08T07:37:26.775Z,8.50
2022-11-08T07:39:53.748Z,8.70
2022-11-08T07:42:20.406Z,9.00
2022-11-08T07:44:47.554Z,9.20
2022-11-08T07:47:14.368Z,9.30
2022-11-08T07:49:41.374Z,9.50
2022-11-08T07:52:08.568Z,9.70
2022-11-08T07:54:35.295Z,9.70
2022-11-08T07:57:02.479Z,9.60
2022-11-08T07:59:29.264Z,9.70
2022-11-08T08:01:56.012Z,10.00
2022-11-08T08:04:23.022Z,10.20
2022-11-08T08:06:50.124Z,10.30
2022-11-08T08:09:16.888Z,10.40
2022-11-08T08:11:43.561Z,10.40
2022-11-08T08:14:10.521Z,10.50
2022-11-08T08:16:37.314Z,10.90
2022-11-08T08:19:04.471Z,11.10
2022-11-08T08:21:31.097Z,11.20
2022-11-08T08:23:58.057Z,11.20
2022-11-08T08:26:24.921Z,11.10
2022-11-08T08:28:52.068Z,11.10
2022-11-08T08:31:18.912Z,10.90
2022-11-08T08:33:45.761Z,11.10
2022-11-08T08:36:12.704Z,11.50
2022-11-08T08:38:44.309Z,11.50
2022-11-08T08:41:11.781Z,11.60
2022-11-08T08:43:39.229Z,11.30
2022-11-08T08:46:06.321Z,11.70
2022-11-08T08:48:33.195Z,11.90
2022-11-08T08:51:00.531Z,11.90
2022-11-08T08:53:27.334Z,11.80
2022-11-08T08:55:54.407Z,11.80
2022-11-08T08:58:21.411Z,12.10
2022-11-08T09:03:35.163Z,12.10
2022-11-08T09:06:01.945Z,12.20
2022-11-08T09:08:29.184Z,12.40
2022-11-08T09:10:55.955Z,12.70
2022-11-08T09:13:23.629Z,12.60
2022-11-08T09:15:51.015Z,12.80
2022-11-08T09:18:18.402Z,12.80
2022-11-08T09:20:45.202Z,12.90
2022-11-08T09:23:12.052Z,13.20
2022-11-08T09:25:39.304Z,13.30
2022-11-08T09:28:06.413Z,13.30
2022-11-08T09:30:33.874Z,13.00
2022-11-08T09:33:02.420Z,12.80
2022-11-08T09:35:30.030Z,12.70
2022-11-08T09:37:57.042Z,12.50
2022-11-08T09:40:24.260Z,12.60
2022-11-08T09:42:51.039Z,12.90
2022-11-08T09:45:17.883Z,13.00
2022-11-08T09:47:47.817Z,13.30
2022-11-08T09:50:19.108Z,13.20
2022-11-08T09:52:46.610Z,13.30
2022-11-08T09:55:13.551Z,13.10
2022-11-08T09:57:40.316Z,13.10
2022-11-08T10:00:07.206Z,13.30
2022-11-08T10:02:34.269Z,13.70
2022-11-08T10:05:01.240Z,13.60
2022-11-08T10:07:28.144Z,13.50
2022-11-08T10:09:55.095Z,13.70
2022-11-08T10:12:24.745Z,13.50
2022-11-08T10:14:54.333Z,13.40
2022-11-08T10:17:21.767Z,13.70
2022-11-08T10:19:48.629Z,14.10
2022-11-08T10:22:15.815Z,14.20
2022-11-08T10:24:43.165Z,14.00
2022-11-08T10:27:10.170Z,14.00
2022-11-08T10:29:37.672Z,13.80
2022-11-08T10:32:04.405Z,13.60
2022-11-08T10:34:31.387Z,14.10
2022-11-08T10:36:58.168Z,14.00
2022-11-08T10:39:25.611Z,14.10
2022-11-08T10:41:53.040Z,14.30
2022-11-08T10:44:20.106Z,14.20
2022-11-08T10:46:46.981Z,14.20
2022-11-08T10:49:14.222Z,14.20
2022-11-08T10:51:40.972Z,14.10
2022-11-08T10:54:08.472Z,14.30
2022-11-08T10:56:37.748Z,14.30
2022-11-08T10:59:04.993Z,14.40
2022-11-08T11:01:32.317Z,14.90
2022-11-08T11:03:59.491Z,15.10
2022-11-08T11:06:26.838Z,15.10
2022-11-08T11:08:53.654Z,15.60
2022-11-08T11:11:20.564Z,16.00
2022-11-08T11:13:47.520Z,16.30
2022-11-08T11:16:14.842Z,16.50
2022-11-08T11:18:42.142Z,16.00
2022-11-08T11:21:09.403Z,16.00
2022-11-08T11:23:37.101Z,16.00
2022-11-08T11:26:04.195Z,16.00
2022-11-08T11:28:31.627Z,16.40
2022-11-08T11:30:58.747Z,16.10
2022-11-08T11:33:25.530Z,16.10
2022-11-08T11:35:52.839Z,16.10
2022-11-08T11:38:20.396Z,15.30
2022-11-08T11:40:48.064Z,15.60
2022-11-08T11:43:15.136Z,15.40
2022-11-08T11:45:42.310Z,15.60
2022-11-08T11:48:09.061Z,15.30
2022-11-08T11:50:36.212Z,15.60
2022-11-08T11:53:03.498Z,15.60
2022-11-08T11:55:30.678Z,15.40
2022-11-08T11:57:58.177Z,15.70
2022-11-08T12:00:25.296Z,15.90
2022-11-08T12:02:52.108Z,15.80
2022-11-08T12:05:19.452Z,15.90
2022-11-08T12:07:46.699Z,16.20
2022-11-08T12:10:14.149Z,16.60
2022-11-08T12:12:40.920Z,17.00
2022-11-08T12:15:07.788Z,16.90
2022-11-08T12:17:35.142Z,16.30
2022-11-08T12:20:02.621Z,16.30
2022-11-08T12:22:30.114Z,16.50
2022-11-08T12:24:57.617Z,16.90
2022-11-08T12:27:24.357Z,16.50
2022-11-08T12:29:51.620Z,16.50
2022-11-08T12:32:18.610Z,16.60
2022-11-08T12:34:45.919Z,16.20
2022-11-08T12:37:13.028Z,16.50
2022-11-08T12:39:40.408Z,16.60
2022-11-08T12:42:07.411Z,16.50
2022-11-08T12:44:34.210Z,16.10
2022-11-08T12:47:01.619Z,16.40
2022-11-08T12:49:28.815Z,16.70
2022-11-08T12:51:56.103Z,17.30
2022-11-08T12:54:24.254Z,17.70
2022-11-08T12:56:51.562Z,17.60
2022-11-08T12:59:18.760Z,17.60
2022-11-08T13:01:45.709Z,17.20
2022-11-08T13:04:12.410Z,17.50
2022-11-08T13:06:39.614Z,17.80
2022-11-08T13:09:06.556Z,17.30
2022-11-08T13:11:33.694Z,16.50
2022-11-08T13:14:00.919Z,16.80
2022-11-08T13:16:27.799Z,17.00
2022-11-08T13:18:54.437Z,17.10
2022-11-08T13:21:21.341Z,17.20
2022-11-08T13:23:48.389Z,17.30
2022-11-08T13:26:15.606Z,17.60
2022-11-08T13:28:42.913Z,16.60
2022-11-08T13:31:09.583Z,16.60
2022-11-08T13:33:36.231Z,16.70
2022-11-08T13:36:03.123Z,16.70
2022-11-08T13:38:29.781Z,16.50
2022-11-08T13:40:56.597Z,16.50
2022-11-08T13:43:23.223Z,16.60
2022-11-08T13:45:49.879Z,17.00
2022-11-08T13:48:20.022Z,17.40
2022-11-08T13:50:48.978Z,17.40
2022-11-08T13:53:15.617Z,17.00
2022-11-08T13:55:42.316Z,17.20
2022-11-08T13:58:08.942Z,17.50
2022-11-08T14:00:35.551Z,17.20
2022-11-08T14:03:02.268Z,17.20
2022-11-08T14:05:28.909Z,17.10
2022-11-08T14:07:55.592Z,17.00
2022-11-08T14:10:22.284Z,16.90
2022-11-08T14:12:48.969Z,17.00
2022-11-08T14:15:15.597Z,17.00
2022-11-08T14:17:42.268Z,17.20
2022-11-08T14:20:08.930Z,17.10
2022-11-08T14:22:35.595Z,16.70
2022-11-08T14:25:02.622Z,16.80
2022-11-08T14:27:29.270Z,17.00
2022-11-08T14:29:55.899Z,17.10
2022-11-08T14:32:22.710Z,17.10
2022-11-08T14:34:49.354Z,17.00
2022-11-08T14:37:16.005Z,16.90
2022-11-08T14:39:42.617Z,17.00
2022-11-08T14:42:09.309Z,16.90
2022-11-08T14:44:35.989Z,16.90
2022-11-08T14:47:02.701Z,16.80
2022-11-08T14:49:29.351Z,16.70
2022-11-08T14:51:56.085Z,16.60
2022-11-08T14:54:22.724Z,16.60
2022-11-08T14:56:49.364Z,16.50
2022-11-08T14:59:16.101Z,16.00
2022-11-08T15:01:42.930Z,15.80
2022-11-08T15:04:09.651Z,15.80
2022-11-08T15:06:36.854Z,15.60
2022-11-08T15:09:03.602Z,15.70
2022-11-08T15:11:30.592Z,15.70
2022-11-08T15:13:57.220Z,15.40
2022-11-08T15:16:23.869Z,14.70
2022-11-08T15:18:50.476Z,14.60
2022-11-08T15:21:17.104Z,14.90
2022-11-08T15:23:43.766Z,15.00
2022-11-08T15:26:12.860Z,14.90
2022-11-08T15:28:42.634Z,14.80
2022-11-08T15:31:09.582Z,14.80
2022-11-08T15:33:36.229Z,14.80
2022-11-08T15:36:02.988Z,14.60
2022-11-08T15:38:29.635Z,14.60
2022-11-08T15:40:56.298Z,14.50
2022-11-08T15:43:23.005Z,14.40
2022-11-08T15:45:49.737Z,14.20
2022-11-08T15:48:16.629Z,14.10
2022-11-08T15:50:43.448Z,13.60
2022-11-08T15:53:10.177Z,13.70
2022-11-08T15:55:36.859Z,13.60
2022-11-08T15:58:03.553Z,13.30
2022-11-08T16:00:30.240Z,13.00
2022-11-08T16:02:56.872Z,13.20
2022-11-08T16:05:23.566Z,13.30
2022-11-08T16:07:50.264Z,13.30
2022-11-08T16:10:16.944Z,13.20
2022-11-08T16:12:43.587Z,13.00
2022-11-08T16:15:10.272Z,12.50
2022-11-08T16:17:36.896Z,12.30
2022-11-08T16:20:03.541Z,12.30
2022-11-08T16:22:30.290Z,12.50
2022-11-08T16:24:57.152Z,12.50
2022-11-08T16:27:23.828Z,12.60
2022-11-08T16:29:50.467Z,12.50
2022-11-08T16:32:17.144Z,12.50
2022-11-08T16:34:43.849Z,12.30
2022-11-08T16:37:10.503Z,12.40
2022-11-08T16:39:37.139Z,12.50
2022-11-08T16:42:03.819Z,12.60
2022-11-08T16:44:30.679Z,12.60
2022-11-08T16:46:57.370Z,12.60
2022-11-08T16:49:24.060Z,12.40
2022-11-08T16:51:50.708Z,11.90
2022-11-08T16:54:17.380Z,11.40
2022-11-08T16:56:44.088Z,11.30
2022-11-08T16:59:10.735Z,11.70
2022-11-08T17:01:37.469Z,11.90
2022-11-08T17:04:04.169Z,12.00
2022-11-08T17:06:30.909Z,11.90
2022-11-08T17:08:57.637Z,11.90
2022-11-08T17:11:24.391Z,11.80
2022-11-08T17:13:51.023Z,11.10
2022-11-08T17:16:17.653Z,10.80
2022-11-08T17:18:47.440Z,10.80
2022-11-08T17:21:43.021Z,10.80
2022-11-08T17:24:03.241Z,11.20
2022-11-08T17:26:29.940Z,11.40
2022-11-08T17:28:56.588Z,10.90
2022-11-08T17:31:23.208Z,10.50
2022-11-08T17:33:49.901Z,10.80
2022-11-08T17:36:16.626Z,10.80
2022-11-08T17:38:43.321Z,10.90
2022-11-08T17:41:09.953Z,10.90
2022-11-08T17:43:36.696Z,11.00
2022-11-08T17:46:03.339Z,10.80
2022-11-08T17:48:30.048Z,11.00
2022-11-08T17:50:56.761Z,11.10
2022-11-08T17:53:23.416Z,10.70
2022-11-08T17:55:50.053Z,10.80
2022-11-08T17:58:16.728Z,10.90
2022-11-08T18:00:43.500Z,10.60
2022-11-08T18:03:12.531Z,10.80
2022-11-08T18:05:39.380Z,10.90
2022-11-08T18:08:06.066Z,10.90
2022-11-08T18:10:32.865Z,10.80
2022-11-08T18:12:59.497Z,10.80
2022-11-08T18:15:26.167Z,10.80
2022-11-08T18:17:52.880Z,10.50
2022-11-08T18:20:19.529Z,10.10
2022-11-08T18:22:46.257Z,10.00
2022-11-08T18:25:12.941Z,9.90
2022-11-08T18:27:39.568Z,10.10
2022-11-08T18:30:06.215Z,10.30
2022-11-08T18:32:32.860Z,10.40
2022-11-08T18:34:59.499Z,10.40
2022-11-08T18:37:26.141Z,10.40
2022-11-08T18:39:52.777Z,10.30
2022-11-08T18:42:19.457Z,9.60
2022-11-08T18:44:46.112Z,9.80
2022-11-08T18:47:12.760Z,9.90
2022-11-08T18:49:39.413Z,9.90
2022-11-08T18:52:06.055Z,10.00
2022-11-08T18:54:32.754Z,9.90
2022-11-08T18:56:59.476Z,9.90
2022-11-08T18:59:26.151Z,10.00
2022-11-08T19:01:52.961Z,10.10
2022-11-08T19:04:19.763Z,10.10
2022-11-08T19:06:51.526Z,10.00
2022-11-08T19:09:20.900Z,10.00
2022-11-08T19:11:47.861Z,9.80
2022-11-08T19:14:14.553Z,9.90
2022-11-08T19:16:41.264Z,9.90
2022-11-08T19:19:07.910Z,9.50
2022-11-08T19:21:35.013Z,9.50
2022-11-08T19:24:01.662Z,9.60
2022-11-08T19:26:28.363Z,9.60
2022-11-08T19:28:55.079Z,9.70
2022-11-08T19:31:21.733Z,9.80
2022-11-08T19:33:48.397Z,9.10
2022-11-08T19:36:15.055Z,9.00
2022-11-08T19:38:41.766Z,8.80
2022-11-08T19:41:08.440Z,9.10
2022-11-08T19:43:35.074Z,9.40
2022-11-08T19:46:01.741Z,9.50
2022-11-08T19:48:28.397Z,9.60
2022-11-08T19:50:55.051Z,9.60
2022-11-08T19:53:21.732Z,9.70
2022-11-08T19:55:48.399Z,9.70
2022-11-08T19:58:15.260Z,8.90
2022-11-08T20:00:42.007Z,9.10
2022-11-08T20:03:08.672Z,8.70
2022-11-08T20:05:35.323Z,8.90
2022-11-08T20:08:02.007Z,8.90
2022-11-08T20:10:28.635Z,8.80
2022-11-08T20:12:55.335Z,8.80
2022-11-08T20:15:22.029Z,8.90
2022-11-08T20:17:48.716Z,9.10
2022-11-08T20:20:15.422Z,9.20
2022-11-08T20:22:45.573Z,9.30
2022-11-08T20:25:16.916Z,9.30
2022-11-08T20:27:43.541Z,9.30
2022-11-08T20:30:10.346Z,9.40
2022-11-08T20:32:37.029Z,9.30
2022-11-08T20:35:04.334Z,9.30
2022-11-08T20:37:31.180Z,9.20
2022-11-08T20:39:57.850Z,9.20
2022-11-08T20:42:24.497Z,9.20
2022-11-08T20:44:51.200Z,9.30
2022-11-08T20:47:19.114Z,9.30
2022-11-08T20:49:45.880Z,9.40
2022-11-08T20:52:12.546Z,9.20
2022-11-08T20:54:43.781Z,9.20
2022-11-08T20:57:10.661Z,9.30
2022-11-08T20:59:37.399Z,9.30
2022-11-08T21:02:04.121Z,9.00
2022-11-08T21:04:30.759Z,9.00
2022-11-08T21:07:59.244Z,9.00
2022-11-08T21:09:50.523Z,8.80
2022-11-08T21:12:18.515Z,8.90
2022-11-08T21:14:45.177Z,9.20
2022-11-08T21:17:27.169Z,9.30
2022-11-08T21:19:53.807Z,9.30
2022-11-08T21:22:20.491Z,9.10
2022-11-08T21:27:31.395Z,9.30
2022-11-08T21:29:58.087Z,9.30
2022-11-08T21:32:24.746Z,9.30
2022-11-08T21:34:51.388Z,9.20
2022-11-08T21:37:18.029Z,9.20
2022-11-08T21:39:44.747Z,9.30
2022-11-08T21:42:11.411Z,9.20
2022-11-08T21:44:38.083Z,9.20
2022-11-08T21:47:04.748Z,9.10
2022-11-08T21:49:31.402Z,9.00
2022-11-08T21:51:58.068Z,9.10
2022-11-08T21:54:24.691Z,9.10
2022-11-08T21:56:51.359Z,8.90
2022-11-08T21:59:18.010Z,8.90
2022-11-08T22:01:44.642Z,9.00
2022-11-08T22:04:11.271Z,9.10
2022-11-08T22:06:37.970Z,9.00
2022-11-08T22:09:04.682Z,9.00
2022-11-08T22:11:31.298Z,9.10
2022-11-08T22:13:58.050Z,9.10
2022-11-08T22:16:24.795Z,9.00
2022-11-08T22:19:04.790Z,9.00
2022-11-08T22:21:32.085Z,9.00
2022-11-08T22:23:58.823Z,8.70
2022-11-08T22:26:25.503Z,8.50
2022-11-08T22:28:52.107Z,8.80
2022-11-08T22:31:18.786Z,8.80
2022-11-08T22:33:45.426Z,8.80
2022-11-08T22:36:12.115Z,8.70
2022-11-08T22:38:38.867Z,8.80
2022-11-08T22:41:05.504Z,8.50
2022-11-08T22:43:32.185Z,8.60
2022-11-08T22:45:58.844Z,8.80
2022-11-08T22:48:25.514Z,8.90
2022-11-08T22:50:52.221Z,9.10
2022-11-08T22:53:19.144Z,9.00
2022-11-08T22:55:46.092Z,9.10
2022-11-08T22:58:12.756Z,9.00
2022-11-08T23:00:39.411Z,9.00
2022-11-08T23:03:06.056Z,8.90
2022-11-08T23:05:32.668Z,8.70
2022-11-08T23:07:59.338Z,8.60
2022-11-08T23:10:25.938Z,8.30
2022-11-08T23:12:52.570Z,8.50
2022-11-08T23:15:19.216Z,8.50
2022-11-08T23:17:45.883Z,8.60
2022-11-08T23:20:12.563Z,8.20
2022-11-08T23:22:39.209Z,8.40
2022-11-08T23:25:05.908Z,8.40
2022-11-08T23:27:32.702Z,8.40
2022-11-08T23:29:59.389Z,8.40
2022-11-08T23:32:26.074Z,8.40
2022-11-08T23:34:53.970Z,8.30
2022-11-08T23:37:20.650Z,8.20
2022-11-08T23:39:47.365Z,7.60
2022-11-08T23:42:14.091Z,7.70
2022-11-08T23:44:40.906Z,7.30
2022-11-08T23:47:07.624Z,7.30
2022-11-08T23:49:34.300Z,7.50
2022-11-08T23:52:01.004Z,7.40
2022-11-08T23:54:27.699Z,7.60
2022-11-08T23:56:54.410Z,7.80
2022-11-08T23:59:21.166Z,7.90
